createdAt,value
2018-07-08T00:01:33.147Z,2.20
2018-07-08T00:04:02.306Z,1.93
2018-07-08T00:06:31.280Z,1.67
2018-07-08T00:08:59.844Z,1.53
2018-07-08T00:11:28.411Z,2.10
2018-07-08T00:13:56.986Z,2.00
2018-07-08T00:16:25.580Z,1.93
2018-07-08T00:18:54.127Z,1.93
2018-07-08T00:21:22.699Z,1.93
2018-07-08T00:23:50.928Z,2.20
2018-07-08T00:26:19.503Z,2.40
2018-07-08T00:28:48.048Z,2.47
2018-07-08T00:31:16.663Z,1.60
2018-07-08T00:33:45.271Z,1.50
2018-07-08T00:36:13.820Z,2.17
2018-07-08T00:38:42.336Z,2.10
2018-07-08T00:41:10.958Z,2.07
2018-07-08T00:43:39.207Z,1.83
2018-07-08T00:46:07.819Z,2.43
2018-07-08T00:48:36.090Z,1.87
2018-07-08T00:51:04.329Z,2.40
2018-07-08T00:53:32.997Z,2.40
2018-07-08T00:56:02.311Z,2.27
2018-07-08T00:58:31.323Z,2.10
2018-07-08T01:00:59.840Z,2.13
2018-07-08T01:03:28.447Z,2.13
2018-07-08T01:05:56.977Z,2.47
2018-07-08T01:08:25.619Z,2.20
2018-07-08T01:10:54.189Z,2.00
2018-07-08T01:13:22.732Z,2.40
2018-07-08T01:15:51.410Z,3.10
2018-07-08T01:18:19.920Z,2.27
2018-07-08T01:20:48.503Z,2.50
2018-07-08T01:23:16.725Z,2.43
2018-07-08T01:25:56.503Z,2.37
2018-07-08T01:28:25.087Z,2.87
2018-07-08T01:30:53.702Z,2.13
2018-07-08T01:33:22.308Z,2.30
2018-07-08T01:35:50.825Z,2.27
2018-07-08T01:38:19.422Z,3.03
2018-07-08T01:40:48.021Z,2.13
2018-07-08T01:43:16.587Z,2.20
2018-07-08T01:45:44.849Z,2.20
2018-07-08T01:48:13.398Z,2.20
2018-07-08T01:50:41.975Z,2.53
2018-07-08T01:53:10.582Z,2.23
2018-07-08T01:55:39.104Z,2.50
2018-07-08T01:58:07.386Z,2.37
2018-07-08T02:00:35.610Z,3.03
2018-07-08T02:03:04.275Z,2.80
2018-07-08T02:05:33.898Z,2.40
2018-07-08T02:08:03.318Z,2.20
2018-07-08T02:10:31.939Z,2.43
2018-07-08T02:13:00.166Z,2.10
2018-07-08T02:15:28.835Z,3.00
2018-07-08T02:17:57.371Z,2.70
2018-07-08T02:20:25.653Z,2.30
2018-07-08T02:22:53.876Z,2.83
2018-07-08T02:25:22.454Z,3.17
2018-07-08T02:27:51.589Z,2.43
2018-07-08T02:30:20.161Z,2.93
2018-07-08T02:32:48.786Z,2.40
2018-07-08T02:35:17.411Z,3.30
2018-07-08T02:37:46.031Z,2.90
2018-07-08T02:40:14.535Z,2.50
2018-07-08T02:42:43.146Z,2.90
2018-07-08T02:45:11.708Z,3.03
2018-07-08T02:47:40.231Z,2.33
2018-07-08T02:50:08.847Z,3.33
2018-07-08T02:52:37.367Z,3.03
2018-07-08T02:55:05.978Z,2.43
2018-07-08T02:57:34.483Z,2.80
2018-07-08T03:00:04.851Z,2.60
2018-07-08T03:02:34.540Z,2.67
2018-07-08T03:05:04.183Z,2.53
2018-07-08T03:07:33.747Z,2.50
2018-07-08T03:10:03.111Z,2.30
2018-07-08T03:12:32.443Z,2.60
2018-07-08T03:15:01.298Z,3.27
2018-07-08T03:17:29.884Z,2.70
2018-07-08T03:19:58.400Z,3.20
2018-07-08T03:22:26.598Z,3.23
2018-07-08T03:24:55.149Z,2.93
2018-07-08T03:27:23.655Z,2.83
2018-07-08T03:29:52.362Z,3.50
2018-07-08T03:32:20.905Z,2.60
2018-07-08T03:34:49.580Z,3.07
2018-07-08T03:37:18.162Z,2.83
2018-07-08T03:39:46.754Z,3.23
2018-07-08T03:42:15.391Z,2.63
2018-07-08T03:44:43.938Z,2.83
2018-07-08T03:47:12.181Z,3.10
2018-07-08T03:49:40.694Z,2.43
2018-07-08T03:52:09.303Z,3.57
2018-07-08T03:54:37.895Z,3.57
2018-07-08T03:57:06.497Z,3.30
2018-07-08T03:59:34.999Z,2.80
2018-07-08T04:02:03.594Z,3.10
2018-07-08T04:04:32.542Z,3.90
2018-07-08T04:07:02.023Z,3.30
2018-07-08T04:09:30.563Z,3.20
2018-07-08T04:12:00.024Z,2.80
2018-07-08T04:14:28.584Z,3.03
2018-07-08T04:16:57.119Z,2.97
2018-07-08T04:19:25.685Z,3.03
2018-07-08T04:21:54.294Z,2.97
2018-07-08T04:24:22.817Z,3.23
2018-07-08T04:26:51.614Z,2.77
2018-07-08T04:29:20.213Z,3.60
2018-07-08T04:31:48.790Z,3.00
2018-07-08T04:34:17.347Z,2.97
2018-07-08T04:36:45.911Z,3.03
2018-07-08T04:39:14.255Z,2.93
2018-07-08T04:41:42.843Z,3.43
2018-07-08T04:44:11.348Z,2.70
2018-07-08T04:46:39.966Z,3.33
2018-07-08T04:49:08.582Z,3.60
2018-07-08T04:51:37.165Z,3.57
2018-07-08T04:54:05.702Z,2.70
2018-07-08T04:56:34.239Z,3.00
2018-07-08T04:59:03.987Z,3.30
2018-07-08T05:01:33.667Z,2.90
2018-07-08T05:04:02.333Z,3.27
2018-07-08T05:06:31.390Z,2.77
2018-07-08T05:08:59.939Z,2.90
2018-07-08T05:11:28.435Z,2.97
2018-07-08T05:13:56.709Z,2.53
2018-07-08T05:16:25.030Z,3.60
2018-07-08T05:18:53.655Z,3.60
2018-07-08T05:21:22.285Z,3.60
2018-07-08T05:23:50.958Z,2.70
2018-07-08T05:26:19.507Z,2.17
2018-07-08T05:28:48.090Z,2.53
2018-07-08T05:31:16.647Z,2.47
2018-07-08T05:33:45.167Z,2.93
2018-07-08T05:36:13.746Z,2.40
2018-07-08T05:38:42.380Z,3.07
2018-07-08T05:41:10.886Z,2.80
2018-07-08T05:43:39.402Z,3.50
2018-07-08T05:46:07.683Z,3.00
2018-07-08T05:48:35.907Z,2.90
2018-07-08T05:51:04.515Z,3.63
2018-07-08T05:53:34.294Z,3.10
2018-07-08T05:56:03.935Z,3.73
2018-07-08T05:58:33.323Z,3.00
2018-07-08T06:01:02.406Z,2.97
2018-07-08T06:03:31.361Z,2.80
2018-07-08T06:05:59.987Z,2.87
2018-07-08T06:08:28.660Z,3.17
2018-07-08T06:10:57.204Z,2.93
2018-07-08T06:13:25.449Z,3.43
2018-07-08T06:15:54.068Z,2.70
2018-07-08T06:18:22.346Z,4.00
2018-07-08T06:20:50.731Z,2.80
2018-07-08T06:23:19.258Z,3.30
2018-07-08T06:25:47.795Z,2.50
2018-07-08T06:28:16.392Z,3.23
2018-07-08T06:30:45.027Z,4.40
2018-07-08T06:33:13.590Z,3.33
2018-07-08T06:35:42.146Z,3.40
2018-07-08T06:38:10.754Z,3.30
2018-07-08T06:40:39.315Z,2.70
2018-07-08T06:43:07.906Z,3.23
2018-07-08T06:45:36.503Z,3.17
2018-07-08T06:48:05.207Z,3.30
2018-07-08T06:50:34.979Z,3.17
2018-07-08T06:53:04.681Z,3.53
2018-07-08T06:55:34.107Z,3.63
2018-07-08T06:58:03.700Z,3.63
2018-07-08T07:00:32.475Z,3.33
2018-07-08T07:03:01.678Z,3.53
2018-07-08T07:05:30.339Z,3.90
2018-07-08T07:07:58.903Z,4.33
2018-07-08T07:10:27.200Z,3.60
2018-07-08T07:12:55.737Z,3.90
2018-07-08T07:15:24.358Z,3.57
2018-07-08T07:17:53.086Z,3.70
2018-07-08T07:20:21.830Z,4.17
2018-07-08T07:22:50.202Z,3.97
2018-07-08T07:25:18.764Z,3.90
2018-07-08T07:27:47.371Z,4.03
2018-07-08T07:30:15.602Z,4.83
2018-07-08T07:32:44.288Z,4.63
2018-07-08T07:35:12.860Z,4.03
2018-07-08T07:37:41.451Z,4.37
2018-07-08T07:40:10.021Z,4.67
2018-07-08T07:42:38.592Z,5.13
2018-07-08T07:45:07.452Z,3.97
2018-07-08T07:58:50.916Z,4.37
2018-07-08T08:01:19.481Z,4.20
2018-07-08T08:03:48.043Z,5.10
2018-07-08T08:06:16.642Z,6.17
2018-07-08T08:08:45.343Z,6.00
2018-07-08T08:11:13.971Z,5.50
2018-07-08T08:13:53.943Z,4.77
2018-07-08T08:16:22.592Z,5.17
2018-07-08T08:18:51.153Z,4.43
2018-07-08T08:21:19.692Z,5.30
2018-07-08T08:23:48.329Z,4.63
2018-07-08T08:26:17.224Z,4.57
2018-07-08T08:28:45.821Z,4.00
2018-07-08T08:31:14.402Z,4.97
2018-07-08T08:33:43.214Z,4.37
2018-07-08T08:36:11.514Z,4.17
2018-07-08T08:38:40.054Z,4.80
2018-07-08T08:41:08.736Z,5.33
2018-07-08T08:43:37.296Z,4.87
2018-07-08T08:46:06.057Z,4.70
2018-07-08T08:48:34.821Z,4.83
2018-07-08T08:51:04.826Z,4.67
2018-07-08T08:53:33.254Z,5.47
2018-07-08T08:56:09.820Z,4.37
2018-07-08T08:58:38.355Z,4.77
2018-07-08T09:01:06.808Z,4.90
2018-07-08T09:03:35.753Z,4.07
2018-07-08T09:06:06.341Z,4.40
2018-07-08T09:08:40.109Z,4.70
2018-07-08T09:11:09.787Z,5.30
2018-07-08T09:13:39.093Z,5.77
2018-07-08T09:16:08.624Z,5.13
2018-07-08T09:18:39.057Z,4.43
2018-07-08T09:21:08.186Z,5.20
2018-07-08T09:23:37.147Z,4.73
2018-07-08T09:26:06.405Z,5.67
2018-07-08T09:28:35.249Z,5.33
2018-07-08T09:31:04.098Z,4.67
2018-07-08T09:33:34.028Z,4.53
2018-07-08T09:36:03.644Z,5.77
2018-07-08T09:38:33.047Z,4.93
2018-07-08T09:41:02.237Z,5.87
2018-07-08T09:43:31.660Z,5.63
2018-07-08T09:46:01.007Z,6.03
2018-07-08T09:48:29.843Z,5.33
2018-07-08T09:50:59.564Z,6.20
2018-07-08T09:53:29.201Z,5.80
2018-07-08T09:55:58.737Z,5.30
2018-07-08T09:58:28.190Z,4.73
2018-07-08T10:00:59.532Z,6.20
2018-07-08T10:03:28.593Z,5.50
2018-07-08T10:05:57.201Z,6.43
2018-07-08T10:08:31.763Z,5.20
2018-07-08T10:11:00.705Z,5.73
2018-07-08T10:13:29.544Z,5.20
2018-07-08T10:15:58.503Z,5.53
2018-07-08T10:18:27.552Z,5.60
2018-07-08T10:20:56.866Z,5.93
2018-07-08T10:23:25.964Z,6.20
2018-07-08T10:25:55.934Z,5.53
2018-07-08T10:28:26.074Z,6.43
2018-07-08T10:30:55.083Z,6.10
2018-07-08T10:33:24.525Z,6.67
2018-07-08T10:36:04.373Z,5.87
2018-07-08T10:38:33.714Z,6.67
2018-07-08T10:41:02.475Z,6.03
2018-07-08T10:43:31.945Z,6.13
2018-07-08T10:46:01.330Z,6.00
2018-07-08T10:48:31.120Z,6.70
2018-07-08T10:51:00.549Z,5.97
2018-07-08T10:53:29.832Z,5.87
2018-07-08T10:55:58.499Z,6.73
2018-07-08T10:58:27.276Z,6.40
2018-07-08T11:00:56.638Z,5.57
2018-07-08T11:03:26.832Z,6.10
2018-07-08T11:05:55.633Z,5.87
2018-07-08T11:08:25.092Z,5.97
2018-07-08T11:10:54.493Z,5.20
2018-07-08T11:13:24.193Z,5.67
2018-07-08T11:15:54.194Z,5.37
2018-07-08T11:18:23.954Z,6.43
2018-07-08T11:20:54.276Z,5.43
2018-07-08T11:23:24.525Z,6.40
2018-07-08T11:25:54.165Z,5.83
2018-07-08T11:28:23.081Z,5.30
2018-07-08T11:30:52.427Z,5.03
2018-07-08T11:33:22.091Z,4.90
2018-07-08T11:35:50.613Z,5.40
2018-07-08T11:38:19.698Z,5.07
2018-07-08T11:40:48.992Z,4.87
2018-07-08T11:43:18.966Z,5.50
2018-07-08T11:45:48.268Z,4.90
2018-07-08T11:48:17.904Z,6.30
2018-07-08T11:50:47.024Z,4.67
2018-07-08T11:53:16.582Z,5.30
2018-07-08T11:55:46.680Z,4.93
2018-07-08T11:58:15.951Z,5.30
2018-07-08T12:00:45.260Z,5.22
2018-07-08T12:03:14.803Z,5.43
2018-07-08T12:05:45.073Z,4.97
2018-07-08T12:08:14.354Z,4.80
2018-07-08T12:10:43.526Z,4.65
2018-07-08T12:13:12.609Z,4.83
2018-07-08T12:15:42.226Z,4.75
2018-07-08T12:18:11.729Z,5.33
2018-07-08T12:20:41.135Z,4.83
2018-07-08T12:23:10.391Z,4.87
2018-07-08T12:25:39.682Z,4.87
2018-07-08T12:28:08.867Z,5.25
2018-07-08T12:30:38.036Z,4.50
2018-07-08T12:33:07.155Z,4.97
2018-07-08T12:35:38.716Z,4.80
2018-07-08T12:38:08.060Z,5.65
2018-07-08T12:40:37.743Z,4.95
2018-07-08T12:43:07.423Z,5.20
2018-07-08T12:45:36.652Z,4.75
2018-07-08T12:48:09.313Z,4.65
2018-07-08T12:50:38.928Z,4.67
2018-07-08T12:53:07.730Z,5.05
2018-07-08T12:55:37.179Z,4.92
2018-07-08T12:58:06.429Z,4.92
2018-07-08T13:00:35.931Z,4.53
2018-07-08T13:03:04.510Z,5.00
2018-07-08T13:05:33.139Z,4.92
2018-07-08T13:08:01.691Z,5.08
2018-07-08T13:10:30.234Z,4.45
2018-07-08T13:12:59.151Z,5.70
2018-07-08T13:15:27.682Z,5.25
2018-07-08T13:17:56.939Z,5.30
2018-07-08T13:20:26.628Z,4.90
2018-07-08T13:22:56.256Z,5.65
2018-07-08T13:25:25.743Z,5.12
2018-07-08T13:27:55.513Z,5.03
2018-07-08T13:30:24.936Z,5.55
2018-07-08T13:32:55.740Z,5.65
2018-07-08T13:35:25.278Z,5.50
2018-07-08T13:37:55.125Z,5.17
2018-07-08T13:40:24.526Z,5.60
2018-07-08T13:42:53.933Z,5.55
2018-07-08T13:45:23.280Z,5.05
2018-07-08T13:47:52.780Z,5.65
2018-07-08T13:50:22.610Z,5.50
2018-07-08T13:52:53.686Z,5.55
2018-07-08T13:55:23.877Z,5.87
2018-07-08T13:57:52.479Z,5.25
2018-07-08T14:00:22.093Z,4.78
2018-07-08T14:02:53.300Z,5.08
2018-07-08T14:05:23.092Z,5.45
2018-07-08T14:07:52.777Z,4.97
2018-07-08T14:10:22.449Z,5.30
2018-07-08T14:12:52.717Z,5.20
2018-07-08T14:15:21.934Z,5.17
2018-07-08T14:17:51.502Z,5.15
2018-07-08T14:20:23.010Z,4.65
2018-07-08T14:22:52.755Z,5.35
2018-07-08T14:25:22.694Z,5.00
2018-07-08T14:27:53.256Z,5.20
2018-07-08T14:30:23.428Z,4.60
2018-07-08T14:32:54.142Z,5.25
2018-07-08T14:35:23.723Z,5.28
2018-07-08T14:37:53.811Z,4.78
2018-07-08T14:40:24.810Z,4.78
2018-07-08T14:42:54.863Z,4.65
2018-07-08T14:45:25.152Z,4.50
2018-07-08T14:47:54.311Z,4.75
2018-07-08T14:50:24.197Z,5.25
2018-07-08T14:52:54.087Z,4.10
2018-07-08T14:55:24.507Z,4.67
2018-07-08T14:57:55.089Z,4.50
2018-07-08T15:00:25.145Z,5.10
2018-07-08T15:02:55.396Z,4.47
2018-07-08T15:05:34.922Z,4.70
2018-07-08T15:08:07.483Z,4.58
2018-07-08T15:10:36.993Z,4.25
2018-07-08T15:13:11.257Z,4.50
2018-07-08T15:15:43.101Z,4.35
2018-07-08T15:18:19.744Z,4.50
2018-07-08T15:20:50.219Z,4.80
2018-07-08T15:23:21.194Z,4.62
2018-07-08T15:25:53.194Z,4.75
2018-07-08T15:28:23.909Z,4.75
2018-07-08T15:30:54.740Z,4.83
2018-07-08T15:33:31.852Z,4.50
2018-07-08T15:36:18.305Z,4.20
2018-07-08T15:39:04.043Z,5.33
2018-07-08T15:41:34.038Z,4.90
2018-07-08T15:44:03.417Z,4.47
2018-07-08T15:46:34.484Z,4.70
2018-07-08T15:49:05.686Z,4.65
2018-07-08T15:51:37.147Z,4.37
2018-07-08T15:54:17.663Z,4.65
2018-07-08T15:56:48.004Z,5.47
2018-07-08T15:59:19.421Z,4.17
2018-07-08T16:01:53.689Z,4.28
2018-07-08T16:04:24.620Z,4.37
2018-07-08T16:06:55.306Z,3.85
2018-07-08T16:09:25.307Z,3.67
2018-07-08T16:11:56.049Z,4.55
2018-07-08T16:14:25.251Z,4.00
2018-07-08T16:16:57.026Z,4.12
2018-07-08T16:19:43.420Z,4.05
2018-07-08T16:22:13.933Z,3.77
2018-07-08T16:24:43.839Z,4.20
2018-07-08T16:27:13.574Z,3.87
2018-07-08T16:29:43.330Z,4.12
2018-07-08T16:32:13.530Z,4.03
2018-07-08T16:34:43.431Z,3.95
2018-07-08T16:37:13.794Z,4.12
2018-07-08T16:39:43.483Z,3.80
2018-07-08T16:42:18.276Z,4.22
2018-07-08T16:44:47.929Z,4.40
2018-07-08T16:47:17.902Z,3.80
2018-07-08T16:49:47.569Z,3.72
2018-07-08T16:52:24.230Z,3.70
2018-07-08T16:54:55.395Z,3.72
2018-07-08T16:57:26.509Z,3.90
2018-07-08T16:59:57.091Z,4.20
2018-07-08T17:02:26.827Z,3.87
2018-07-08T17:04:57.483Z,4.03
2018-07-08T17:07:26.391Z,4.33
2018-07-08T17:09:57.248Z,3.80
2018-07-08T17:12:28.100Z,3.83
2018-07-08T17:15:03.027Z,3.75
2018-07-08T17:17:33.276Z,3.22
2018-07-08T17:20:05.814Z,3.95
2018-07-08T17:22:35.328Z,4.33
2018-07-08T17:25:04.638Z,3.55
2018-07-08T17:27:34.432Z,4.28
2018-07-08T17:30:04.472Z,3.35
2018-07-08T17:32:34.244Z,3.92
2018-07-08T17:35:04.832Z,3.98
2018-07-08T17:37:34.393Z,3.00
2018-07-08T17:40:04.401Z,3.92
2018-07-08T17:42:34.331Z,3.52
2018-07-08T17:45:04.408Z,3.08
2018-07-08T17:47:35.047Z,3.67
2018-07-08T17:50:06.652Z,3.65
2018-07-08T17:52:38.313Z,3.55
2018-07-08T17:55:07.651Z,3.40
2018-07-08T17:57:37.108Z,3.52
2018-07-08T18:00:06.773Z,3.62
2018-07-08T18:02:35.956Z,3.60
2018-07-08T18:05:05.901Z,3.95
2018-07-08T18:07:35.260Z,3.73
2018-07-08T18:10:04.682Z,3.47
2018-07-08T18:12:33.529Z,3.50
2018-07-08T18:15:02.167Z,3.50
2018-07-08T18:17:30.463Z,3.90
2018-07-08T18:19:59.190Z,3.65
2018-07-08T18:22:27.898Z,4.17
2018-07-08T18:24:56.905Z,3.70
2018-07-08T18:27:25.525Z,3.98
2018-07-08T18:29:54.086Z,3.73
2018-07-08T18:32:22.593Z,3.40
2018-07-08T18:34:51.208Z,3.57
2018-07-08T18:37:19.801Z,3.83
2018-07-08T18:39:48.604Z,3.60
2018-07-08T18:42:17.463Z,3.17
2018-07-08T18:44:46.048Z,3.87
2018-07-08T18:47:14.684Z,3.60
2018-07-08T18:49:43.447Z,4.27
2018-07-08T18:52:11.988Z,4.63
2018-07-08T18:54:40.624Z,5.33
2018-07-08T18:57:10.250Z,4.30
2018-07-08T18:59:38.779Z,4.53
2018-07-08T19:02:07.373Z,3.67
2018-07-08T19:04:35.983Z,4.10
2018-07-08T19:07:04.643Z,4.00
2018-07-08T19:09:33.362Z,4.00
2018-07-08T19:12:02.615Z,4.47
2018-07-08T19:14:31.583Z,4.10
2018-07-08T19:17:00.281Z,3.70
2018-07-08T19:19:28.850Z,3.70
2018-07-08T19:21:57.524Z,4.10
2018-07-08T19:24:26.255Z,4.00
2018-07-08T19:26:54.799Z,3.70
2018-07-08T19:29:23.716Z,4.97
2018-07-08T19:31:52.612Z,4.00
2018-07-08T19:34:21.713Z,4.37
2018-07-08T19:36:50.307Z,3.60
2018-07-08T19:39:18.980Z,4.20
2018-07-08T19:41:47.506Z,4.37
2018-07-08T19:44:15.839Z,3.47
2018-07-08T19:46:44.439Z,4.47
2018-07-08T19:49:13.060Z,4.47
2018-07-08T19:51:42.144Z,4.87
2018-07-08T19:54:10.426Z,5.67
2018-07-08T19:56:39.083Z,3.87
2018-07-08T19:59:07.651Z,4.60
2018-07-08T20:01:36.240Z,4.23
2018-07-08T20:04:05.012Z,4.53
2018-07-08T20:06:34.696Z,4.90
2018-07-08T20:09:04.757Z,5.03
2018-07-08T20:11:34.052Z,5.23
2018-07-08T20:14:03.638Z,5.23
2018-07-08T20:16:32.746Z,4.63
2018-07-08T20:19:02.492Z,4.77
2018-07-08T20:21:31.644Z,5.67
2018-07-08T20:24:00.238Z,4.93
2018-07-08T20:26:28.826Z,4.50
2018-07-08T20:28:57.489Z,4.53
2018-07-08T20:31:26.173Z,4.90
2018-07-08T20:33:54.796Z,3.80
2018-07-08T20:36:23.364Z,4.50
2018-07-08T20:38:51.964Z,4.80
2018-07-08T20:41:20.529Z,4.13
2018-07-08T20:43:49.212Z,5.70
2018-07-08T20:46:17.786Z,4.53
2018-07-08T20:48:46.345Z,5.00
2018-07-08T20:51:14.909Z,5.13
2018-07-08T20:53:43.440Z,4.90
2018-07-08T20:56:12.063Z,4.13
2018-07-08T20:58:40.315Z,3.50
2018-07-08T21:01:08.919Z,4.67
2018-07-08T21:03:37.176Z,4.70
2018-07-08T21:06:05.764Z,4.90
2018-07-08T21:08:34.517Z,5.27
2018-07-08T21:11:04.042Z,4.10
2018-07-08T21:13:33.750Z,4.90
2018-07-08T21:16:03.454Z,4.37
2018-07-08T21:18:32.581Z,4.73
2018-07-08T21:21:01.592Z,5.07
2018-07-08T21:23:30.618Z,5.53
2018-07-08T21:26:00.239Z,5.47
2018-07-08T21:28:28.859Z,5.20
2018-07-08T21:30:57.173Z,4.00
2018-07-08T21:33:27.038Z,4.43
2018-07-08T21:35:56.267Z,5.43
2018-07-08T21:38:25.743Z,5.00
2018-07-08T21:40:54.033Z,5.37
2018-07-08T21:43:22.335Z,4.90
2018-07-08T21:45:50.969Z,4.60
2018-07-08T21:48:19.581Z,5.70
2018-07-08T21:50:48.335Z,5.20
2018-07-08T21:53:16.968Z,5.67
2018-07-08T21:55:48.504Z,5.10
2018-07-08T21:58:17.860Z,5.23
2018-07-08T22:01:05.803Z,5.03
2018-07-08T22:03:35.589Z,5.00
2018-07-08T22:06:04.402Z,5.40
2018-07-08T22:08:36.249Z,5.63
2018-07-08T22:11:06.298Z,4.90
2018-07-08T22:13:35.267Z,4.90
2018-07-08T22:16:06.293Z,5.23
2018-07-08T22:18:35.705Z,5.50
2018-07-08T22:21:04.849Z,4.93
2018-07-08T22:23:35.853Z,4.73
2018-07-08T22:26:04.675Z,4.97
2018-07-08T22:28:34.486Z,4.13
2018-07-08T22:31:05.291Z,4.10
2018-07-08T22:33:33.867Z,4.47
2018-07-08T22:36:03.576Z,4.60
2018-07-08T22:38:32.735Z,4.93
2018-07-08T22:41:01.960Z,5.03
2018-07-08T22:43:32.647Z,5.60
2018-07-08T22:46:01.608Z,4.53
2018-07-08T22:48:30.772Z,4.30
2018-07-08T22:50:59.659Z,4.43
2018-07-08T22:53:28.358Z,4.57
2018-07-08T22:55:57.239Z,4.43
2018-07-08T22:58:26.782Z,4.23
2018-07-08T23:01:07.490Z,4.30
2018-07-08T23:04:08.105Z,4.60
2018-07-08T23:06:36.736Z,4.30
2018-07-08T23:09:06.415Z,4.37
2018-07-08T23:11:34.982Z,4.40
2018-07-08T23:14:04.162Z,4.23
2018-07-08T23:16:33.655Z,4.67
2018-07-08T23:19:02.690Z,4.60
2018-07-08T23:21:31.739Z,4.07
2018-07-08T23:24:00.288Z,4.40
2018-07-08T23:26:28.892Z,4.53
2018-07-08T23:28:57.437Z,4.47
2018-07-08T23:31:26.016Z,4.57
2018-07-08T23:33:54.271Z,4.00
2018-07-08T23:36:22.867Z,4.77
2018-07-08T23:38:51.102Z,4.23
2018-07-08T23:41:19.733Z,4.27
2018-07-08T23:43:48.252Z,4.63
2018-07-08T23:46:16.888Z,4.63
2018-07-08T23:48:45.127Z,5.00
2018-07-08T23:51:13.650Z,4.60
2018-07-08T23:53:42.240Z,4.23
2018-07-08T23:56:10.485Z,4.90
2018-07-08T23:58:39.093Z,4.60
